Hettinger, ND

2:22 PM MST on December 21, 2014 (GMT -0700)
Dickinson Municipal | Change Station
CLOSE
Current Station
Airport
Location: Dickinson,
Elevation: 2592 ft
Nearby Weather Stations
Active Advisory: Special Statement

Elev 2592 ft 46.80 °N, 102.80 °W | Updated 26 minutes ago

Overcast
Overcast
43 °F
Feels Like 37 °F
N
10
Wind Variable Wind from SSW

Today
High -- | Low -- °F
--% Chance of Precip.
Yesterday
High -- | Low -- °F
Precip. -- in
7:29 AM 4:07 PM
Waning Crescent, 0% visible
Pressure 29.39 in
Visibility 10.0 miles
Clouds Mostly Cloudy 10000 ft
Windchill 37 °F
Dew Point 28 °F
Humidity 56%
Rainfall 0.00 in
Snow Depth Not available.
UV 0 out of 12
Pollen .10 out of 12
Air Quality Not available.
Flu Activity Not available.
METAR KDIK 212056Z AUTO 20009KT 10SM BKN100 06/M02 A2933 RMK AO2 SLP951 T00611022 56023

More Conditions Fewer Conditions

Pressure 29.39 in
Visibility 10.0 miles
Clouds Mostly Cloudy 10000 ft
Windchill 37 °F
Dew Point 28 °F
Humidity 56%
Rainfall 0.00 in
Snow Depth Not available.
UV 0 out of 12
Pollen .10 out of 12
Air Quality Not available.
Flu Activity Not available.
METAR KDIK 212056Z AUTO 20009KT 10SM BKN100 06/M02 A2933 RMK AO2 SLP951 T00611022 56023

More Conditions Fewer Conditions

10-Day Weather Forecast

Almanac

Astronomy

Dec. 21, 2014 Rise Set
Actual Time
Civil Twilight
Nautical Twilight
Astronomical Twilight
Moon
Length of Visible Light
Length of Day
Tomorrow will be .
, % of the Moon is Illuminated

Today's Extremes

State Highs State Lows

Community

WunderPhotos

Upload Photos

1,779,482 photos uploaded!

WunderBlogs® & News

Nearby

Air Quality

  Air Quality AQ Index Pollutant
Not available.

Snow Depth

Station Depth Elevation

Earthquake Activity

City Distance Mag. Time & Date
Minimum magnitude displayed is 2.5.

Coastal Water Temperatures

Place Temperature

Nearby Weather Stations